createdAt,value
2018-11-11T00:00:24.028Z,12.00
2018-11-11T00:06:28.857Z,11.90
2018-11-11T00:12:33.580Z,11.90
2018-11-11T00:18:38.280Z,11.80
2018-11-11T00:24:42.964Z,11.80
2018-11-11T00:30:47.680Z,11.90
2018-11-11T00:36:52.423Z,11.90
2018-11-11T00:42:57.132Z,12.00
2018-11-11T00:49:01.915Z,12.00
2018-11-11T00:55:09.720Z,12.10
2018-11-11T01:01:14.446Z,12.00
2018-11-11T01:07:19.238Z,12.00
2018-11-11T01:13:24.511Z,12.00
2018-11-11T01:19:29.232Z,12.00
2018-11-11T01:25:33.935Z,12.00
2018-11-11T01:31:38.784Z,11.90
2018-11-11T01:37:44.074Z,12.10
2018-11-11T01:43:48.769Z,12.00
2018-11-11T01:49:53.930Z,11.90
2018-11-11T01:55:58.671Z,11.90
2018-11-11T02:02:03.401Z,11.70
2018-11-11T02:08:08.651Z,11.70
2018-11-11T02:14:13.375Z,11.70
2018-11-11T02:20:20.166Z,11.60
2018-11-11T02:26:25.330Z,11.70
2018-11-11T02:32:30.506Z,11.60
2018-11-11T02:38:35.301Z,11.70
2018-11-11T02:44:40.405Z,11.60
2018-11-11T02:50:45.331Z,11.60
2018-11-11T02:56:50.173Z,11.60
2018-11-11T03:02:55.554Z,11.50
2018-11-11T03:09:00.400Z,11.40
2018-11-11T03:15:05.939Z,11.50
2018-11-11T03:21:10.845Z,11.50
2018-11-11T03:27:16.556Z,11.60
2018-11-11T03:33:21.389Z,11.60
2018-11-11T03:39:26.215Z,11.60
2018-11-11T03:45:31.515Z,11.50
2018-11-11T03:51:36.297Z,11.40
2018-11-11T03:57:41.147Z,11.30
2018-11-11T04:03:45.854Z,11.10
2018-11-11T04:09:50.686Z,11.00
2018-11-11T04:15:55.706Z,10.80
2018-11-11T04:22:05.740Z,10.60
2018-11-11T04:28:11.038Z,10.40
2018-11-11T04:34:15.775Z,10.10
2018-11-11T04:40:20.803Z,10.10
2018-11-11T04:46:25.631Z,10.10
2018-11-11T04:52:30.313Z,10.20
2018-11-11T04:58:35.546Z,10.20
2018-11-11T05:04:40.302Z,10.10
2018-11-11T05:10:45.251Z,10.00
2018-11-11T05:16:50.048Z,9.90
2018-11-11T05:22:55.066Z,9.80
2018-11-11T05:28:59.727Z,9.70
2018-11-11T05:35:04.456Z,9.60
2018-11-11T05:41:09.142Z,9.50
2018-11-11T05:47:14.645Z,9.50
2018-11-11T05:53:19.349Z,9.50
2018-11-11T05:59:24.138Z,9.60
2018-11-11T06:05:28.856Z,9.70
2018-11-11T06:11:33.820Z,9.80
2018-11-11T06:17:39.377Z,9.90
2018-11-11T06:23:44.101Z,9.90
2018-11-11T06:29:48.836Z,10.00
2018-11-11T06:35:53.674Z,10.00
2018-11-11T06:41:58.535Z,10.00
2018-11-11T06:48:03.291Z,10.10
2018-11-11T06:54:08.421Z,10.20
2018-11-11T07:00:15.691Z,10.30
2018-11-11T07:06:21.129Z,10.40
2018-11-11T07:12:26.016Z,10.40
2018-11-11T07:18:31.072Z,10.60
2018-11-11T07:24:35.957Z,10.70
2018-11-11T07:30:40.635Z,10.70
2018-11-11T07:36:45.410Z,10.80
2018-11-11T07:42:50.104Z,10.80
2018-11-11T07:48:55.287Z,10.90
2018-11-11T07:55:00.431Z,10.90
2018-11-11T08:01:05.341Z,10.90
2018-11-11T08:07:10.222Z,10.90
2018-11-11T08:13:15.469Z,11.00
2018-11-11T08:19:20.691Z,11.00
2018-11-11T08:25:25.657Z,10.90
2018-11-11T08:31:30.749Z,10.90
2018-11-11T08:37:35.734Z,10.90
2018-11-11T08:43:40.438Z,10.90
2018-11-11T08:49:45.133Z,10.90
2018-11-11T08:55:50.286Z,11.00
2018-11-11T09:01:55.424Z,11.00
2018-11-11T09:08:00.622Z,11.00
2018-11-11T09:14:05.594Z,11.00
2018-11-11T09:20:11.197Z,11.00
2018-11-11T09:26:16.080Z,11.10
2018-11-11T09:32:20.805Z,11.20
2018-11-11T09:38:25.948Z,11.30
2018-11-11T09:44:30.678Z,11.40
2018-11-11T09:50:35.576Z,11.70
2018-11-11T09:56:40.330Z,12.00
2018-11-11T10:02:48.935Z,12.30
2018-11-11T10:08:59.327Z,12.70
2018-11-11T10:15:09.464Z,12.80
2018-11-11T10:21:21.919Z,12.90
2018-11-11T10:27:31.926Z,13.10
2018-11-11T10:34:42.424Z,13.20
2018-11-11T10:40:50.398Z,13.30
2018-11-11T10:47:04.752Z,13.10
2018-11-11T10:53:09.984Z,13.30
2018-11-11T10:59:14.813Z,13.50
2018-11-11T11:05:19.824Z,13.80
2018-11-11T11:11:24.919Z,14.10
2018-11-11T11:17:30.002Z,14.40
2018-11-11T11:23:35.629Z,14.60
2018-11-11T11:29:41.664Z,14.60
2018-11-11T11:35:46.839Z,14.60
2018-11-11T11:41:58.275Z,14.40
2018-11-11T11:48:03.218Z,14.20
2018-11-11T11:54:08.389Z,14.30
2018-11-11T12:00:14.399Z,14.30
2018-11-11T12:06:19.474Z,14.40
2018-11-11T12:12:24.537Z,14.50
2018-11-11T12:18:29.686Z,14.60
2018-11-11T12:24:34.727Z,14.80
2018-11-11T12:30:40.770Z,15.00
2018-11-11T12:36:45.715Z,14.90
2018-11-11T12:42:51.032Z,14.80
2018-11-11T12:48:56.169Z,14.80
2018-11-11T12:55:01.309Z,14.70
2018-11-11T13:01:07.186Z,14.70
2018-11-11T13:07:12.307Z,14.50
2018-11-11T13:13:17.436Z,14.50
2018-11-11T13:19:22.534Z,14.40
2018-11-11T13:25:27.619Z,14.50
2018-11-11T13:31:33.688Z,14.40
2018-11-11T13:37:38.975Z,14.40
2018-11-11T13:43:44.090Z,14.50
2018-11-11T13:49:49.224Z,14.60
2018-11-11T13:55:54.278Z,14.70
2018-11-11T14:01:59.369Z,14.80
2018-11-11T14:08:04.546Z,15.00
2018-11-11T14:14:09.922Z,15.10
2018-11-11T14:20:16.382Z,14.90
2018-11-11T14:26:21.566Z,14.80
2018-11-11T14:32:26.827Z,14.70
2018-11-11T14:38:31.997Z,14.60
2018-11-11T14:44:37.178Z,14.50
2018-11-11T14:50:43.969Z,14.40
2018-11-11T14:56:48.999Z,14.20
2018-11-11T15:03:01.507Z,14.10
2018-11-11T15:09:11.828Z,14.00
2018-11-11T15:15:19.472Z,13.90
2018-11-11T15:21:24.557Z,13.80
2018-11-11T15:27:29.796Z,13.60
2018-11-11T15:33:34.808Z,13.50
2018-11-11T15:39:39.968Z,13.30
2018-11-11T15:45:44.955Z,13.20
2018-11-11T15:51:49.862Z,13.00
2018-11-11T15:57:54.928Z,12.90
2018-11-11T16:04:00.216Z,12.70
2018-11-11T16:10:05.575Z,12.60
2018-11-11T16:16:11.031Z,12.60
2018-11-11T16:22:16.487Z,12.60
2018-11-11T16:28:21.453Z,12.70
2018-11-11T16:34:26.447Z,12.70
2018-11-11T16:40:33.874Z,12.70
2018-11-11T16:46:38.886Z,12.70
2018-11-11T16:52:44.612Z,12.60
2018-11-11T16:58:49.868Z,12.60
2018-11-11T17:04:55.782Z,12.50
2018-11-11T17:11:00.727Z,12.50
2018-11-11T17:17:05.822Z,12.40
2018-11-11T17:23:10.478Z,12.30
2018-11-11T17:29:15.335Z,12.20
2018-11-11T17:35:20.097Z,12.00
2018-11-11T17:41:26.481Z,12.00
2018-11-11T17:47:31.834Z,12.00
2018-11-11T17:53:36.844Z,12.00
2018-11-11T17:59:41.876Z,12.00
2018-11-11T18:05:47.324Z,11.90
2018-11-11T18:11:52.258Z,11.90
2018-11-11T18:17:57.433Z,11.80
2018-11-11T18:24:02.167Z,11.80
2018-11-11T18:30:16.373Z,11.90
2018-11-11T18:36:22.094Z,11.90
2018-11-11T18:42:27.187Z,11.90
2018-11-11T18:48:32.145Z,11.90
2018-11-11T18:54:37.142Z,11.90
2018-11-11T19:00:43.006Z,11.90
2018-11-11T19:06:48.894Z,11.90
2018-11-11T19:12:55.451Z,11.90
2018-11-11T19:19:00.466Z,12.00
2018-11-11T19:25:05.889Z,12.10
2018-11-11T19:31:11.536Z,12.10
2018-11-11T19:37:16.537Z,12.20
2018-11-11T19:43:21.486Z,12.20
2018-11-11T19:49:26.507Z,12.20
2018-11-11T19:55:31.493Z,12.20
2018-11-11T20:01:36.617Z,12.20
2018-11-11T20:07:42.908Z,12.20
2018-11-11T20:13:47.868Z,12.30
2018-11-11T20:19:52.872Z,12.30
2018-11-11T20:25:57.816Z,12.30
2018-11-11T20:34:35.692Z,12.30
2018-11-11T20:40:40.484Z,12.20
2018-11-11T20:46:45.204Z,12.20
2018-11-11T20:52:51.772Z,12.20
2018-11-11T20:58:56.809Z,12.20
2018-11-11T21:05:01.466Z,12.20
2018-11-11T21:11:06.668Z,12.30
2018-11-11T21:17:11.379Z,12.30
2018-11-11T21:23:16.003Z,12.30
2018-11-11T21:29:20.735Z,12.20
2018-11-11T21:35:25.800Z,12.00
2018-11-11T21:41:30.561Z,11.90
2018-11-11T21:47:35.817Z,11.80
2018-11-11T21:53:41.627Z,11.80
2018-11-11T21:59:47.160Z,11.70
2018-11-11T22:05:52.714Z,11.60
2018-11-11T22:11:57.464Z,11.50
2018-11-11T22:18:02.881Z,11.60
2018-11-11T22:24:07.976Z,11.50
2018-11-11T22:30:13.043Z,11.50
2018-11-11T22:36:18.042Z,11.50
2018-11-11T22:42:22.963Z,11.50
2018-11-11T22:48:27.948Z,11.50
2018-11-11T22:54:33.070Z,11.40
2018-11-11T23:00:37.988Z,11.40
2018-11-11T23:06:42.816Z,11.40
2018-11-11T23:12:47.673Z,11.40
2018-11-11T23:18:52.544Z,11.40
2018-11-11T23:24:57.404Z,11.30
2018-11-11T23:31:02.162Z,11.30
2018-11-11T23:37:07.045Z,11.40
2018-11-11T23:43:12.565Z,11.40
2018-11-11T23:49:17.236Z,11.40
2018-11-11T23:55:22.351Z,11.40
